CYYU

Kapuskasing Airport

Kapuskasing, Ontario, Canada
METAR CYYU 180600Z 30006KT 15SM BKN054 M08/M12 A2976 RMK SC5 SLP094
Observed Flight Rules
Feb-18 @ 06:00 UTC (an hour ago) Visual Flight Rules
Wind Visibility Clouds
300° at 6 knots 15 miles
  • Broken at 5,400' AGL
Temperatures Readings
Current -8°C / 18°F
Dewpoint -12°C / 10°F
Humidity 73%
Altimeter 29.76" Hg
Pressure 1009.4 hPa
Elevation 227
METAR CYYU 180600Z 30006KT 15SM BKN054 M08/M12 A2976 RMK SC5 SLP094
Observed Flight Rules
Feb-18 @ 06:00 UTC
(an hour ago)
VFR
Wind Visibility
300° at 6 knots 15 miles
Clouds
  • Broken at 5,400' AGL
Temperature Dewpoint
-8°C / 18°F -12°C / 10°F
Humidity Altimeter Pressure
73% 29.76" Hg 1009.4 hPa